Metar z pełnej godziny Komunikat METAR ze strony awiacja.imgw.pl Metar G00 EPRZ METAR EPRZ 241900Z 27009KT 9999 SCT009 BKN025 14/12 Q1012 =